createdAt,value
2022-11-20T00:02:15.389Z,98.07
2022-11-20T00:05:23.135Z,97.96
2022-11-20T00:08:30.893Z,97.96
2022-11-20T00:11:38.143Z,98.02
2022-11-20T00:14:45.544Z,97.91
2022-11-20T00:17:52.893Z,97.91
2022-11-20T00:21:00.274Z,97.71
2022-11-20T00:24:07.935Z,97.39
2022-11-20T00:27:15.364Z,97.11
2022-11-20T00:30:22.788Z,96.80
2022-11-20T00:33:30.785Z,96.59
2022-11-20T00:36:38.286Z,96.42
2022-11-20T00:39:45.775Z,96.31
2022-11-20T00:42:53.195Z,96.21
2022-11-20T00:46:01.056Z,96.15
2022-11-20T00:49:08.375Z,96.15
2022-11-20T00:52:15.773Z,96.04
2022-11-20T00:55:23.553Z,95.98
2022-11-20T00:58:30.996Z,95.87
2022-11-20T01:01:38.315Z,95.87
2022-11-20T01:04:45.866Z,95.87
2022-11-20T01:07:53.414Z,95.98
2022-11-20T01:11:00.507Z,96.09
2022-11-20T01:14:10.506Z,96.09
2022-11-20T01:17:17.494Z,96.09
2022-11-20T01:20:24.956Z,96.23
2022-11-20T01:23:31.987Z,96.23
2022-11-20T01:26:39.076Z,96.23
2022-11-20T01:29:46.116Z,96.13
2022-11-20T01:32:52.617Z,96.13
2022-11-20T01:35:59.997Z,96.13
2022-11-20T01:39:06.597Z,96.34
2022-11-20T01:42:13.917Z,96.34
2022-11-20T01:45:20.899Z,96.34
2022-11-20T01:48:27.889Z,96.28
2022-11-20T01:51:34.976Z,96.17
2022-11-20T01:54:42.335Z,96.07
2022-11-20T01:57:48.889Z,96.00
2022-11-20T02:00:56.254Z,96.11
2022-11-20T02:04:02.777Z,96.11
2022-11-20T02:07:10.283Z,96.11
2022-11-20T02:10:17.235Z,96.22
2022-11-20T02:13:24.263Z,96.22
2022-11-20T02:16:31.199Z,96.22
2022-11-20T02:19:38.275Z,96.32
2022-11-20T02:22:45.337Z,96.43
2022-11-20T02:25:53.270Z,96.43
2022-11-20T02:28:59.857Z,96.43
2022-11-20T02:32:07.400Z,96.43
2022-11-20T02:35:14.081Z,96.43
2022-11-20T02:38:21.331Z,96.53
2022-11-20T02:41:28.192Z,96.59
2022-11-20T02:44:35.301Z,96.59
2022-11-20T02:47:42.290Z,97.13
2022-11-20T02:50:49.151Z,97.13
2022-11-20T02:53:55.991Z,97.23
2022-11-20T02:57:03.511Z,97.19
2022-11-20T03:00:10.150Z,97.39
2022-11-20T03:03:17.582Z,97.61
2022-11-20T03:06:24.203Z,97.61
2022-11-20T03:09:31.612Z,97.61
2022-11-20T03:12:38.724Z,97.81
2022-11-20T03:15:45.681Z,97.92
2022-11-20T03:18:52.802Z,98.03
2022-11-20T03:21:59.982Z,98.03
2022-11-20T03:25:06.489Z,98.03
2022-11-20T03:28:14.065Z,98.24
2022-11-20T03:31:20.603Z,98.30
2022-11-20T03:34:28.204Z,98.30
2022-11-20T03:37:35.302Z,98.30
2022-11-20T03:40:42.333Z,98.30
2022-11-20T03:43:49.309Z,98.41
2022-11-20T03:46:56.372Z,98.36
2022-11-20T03:50:03.333Z,98.25
2022-11-20T03:53:10.855Z,98.15
2022-11-20T03:56:17.496Z,98.25
2022-11-20T03:59:25.266Z,98.15
2022-11-20T04:02:31.788Z,97.94
2022-11-20T04:05:39.236Z,97.73
2022-11-20T04:08:50.988Z,97.77
2022-11-20T04:11:49.155Z,97.67
2022-11-20T04:14:56.300Z,97.56
2022-11-20T04:18:03.319Z,97.56
2022-11-20T04:21:10.105Z,97.63
2022-11-20T04:24:17.665Z,97.56
2022-11-20T04:27:24.338Z,97.52
2022-11-20T04:30:31.757Z,97.52
2022-11-20T04:33:38.767Z,97.52
2022-11-20T04:36:45.589Z,97.41
2022-11-20T04:39:52.710Z,97.31
2022-11-20T04:42:59.666Z,97.25
2022-11-20T04:46:06.603Z,97.14
2022-11-20T04:49:13.987Z,97.14
2022-11-20T04:52:20.607Z,97.14
2022-11-20T04:55:28.216Z,97.03
2022-11-20T04:58:34.862Z,97.14
2022-11-20T05:01:42.387Z,97.03
2022-11-20T05:04:49.324Z,97.25
2022-11-20T05:07:56.284Z,97.14
2022-11-20T05:11:03.268Z,97.03
2022-11-20T05:14:10.297Z,97.08
2022-11-20T05:17:17.661Z,96.97
2022-11-20T05:20:25.068Z,96.97
2022-11-20T05:23:31.558Z,97.29
2022-11-20T05:26:39.108Z,97.71
2022-11-20T05:29:46.098Z,98.03
2022-11-20T05:32:53.028Z,98.13
2022-11-20T05:36:00.031Z,98.03
2022-11-20T05:39:07.019Z,98.13
2022-11-20T05:42:14.202Z,98.13
2022-11-20T05:45:21.664Z,98.24
2022-11-20T05:48:28.260Z,98.19
2022-11-20T05:51:35.609Z,98.09
2022-11-20T05:54:42.238Z,98.09
2022-11-20T05:57:49.802Z,97.77
2022-11-20T06:00:56.880Z,97.56
2022-11-20T06:04:03.929Z,97.56
2022-11-20T06:07:11.009Z,97.63
2022-11-20T06:10:18.191Z,97.63
2022-11-20T06:13:25.360Z,97.58
2022-11-20T06:16:32.652Z,97.58
2022-11-20T06:19:39.230Z,96.91
2022-11-20T06:22:46.780Z,97.01
2022-11-20T06:25:53.421Z,96.91
2022-11-20T06:29:00.818Z,96.80
2022-11-20T06:32:07.935Z,96.80
2022-11-20T06:35:14.923Z,96.86
2022-11-20T06:38:21.922Z,96.86
2022-11-20T06:41:29.332Z,96.97
2022-11-20T06:44:36.002Z,97.07
2022-11-20T06:47:43.399Z,97.03
2022-11-20T06:50:49.993Z,96.92
2022-11-20T06:53:57.320Z,96.81
2022-11-20T06:57:04.392Z,96.71
2022-11-20T07:00:11.514Z,96.50
2022-11-20T07:03:18.791Z,96.29
2022-11-20T07:06:26.051Z,96.08
2022-11-20T07:09:33.770Z,96.03
2022-11-20T07:12:41.364Z,96.14
2022-11-20T07:15:47.983Z,96.14
2022-11-20T07:18:55.135Z,96.03
2022-11-20T07:22:01.812Z,95.72
2022-11-20T07:25:09.325Z,95.83
2022-11-20T07:28:16.490Z,95.89
2022-11-20T07:31:23.565Z,95.78
2022-11-20T07:34:30.478Z,95.78
2022-11-20T07:37:38.455Z,95.68
2022-11-20T07:40:45.907Z,95.57
2022-11-20T07:43:53.306Z,95.57
2022-11-20T07:46:59.906Z,95.26
2022-11-20T07:50:07.265Z,95.04
2022-11-20T07:53:14.204Z,94.84
2022-11-20T07:56:21.177Z,94.62
2022-11-20T07:59:29.054Z,94.37
2022-11-20T08:02:37.535Z,94.37
2022-11-20T08:05:44.427Z,94.58
2022-11-20T08:08:52.757Z,94.48
2022-11-20T08:11:59.577Z,94.37
2022-11-20T08:15:12.564Z,94.37
2022-11-20T08:18:31.202Z,94.33
2022-11-20T08:21:14.198Z,93.91
2022-11-20T08:24:21.341Z,93.91
2022-11-20T08:27:28.360Z,93.91
2022-11-20T08:30:35.467Z,93.91
2022-11-20T08:33:42.436Z,94.01
2022-11-20T08:36:49.329Z,93.87
2022-11-20T08:39:57.892Z,93.76
2022-11-20T08:43:04.550Z,93.76
2022-11-20T08:46:12.059Z,94.18
2022-11-20T08:49:19.266Z,94.24
2022-11-20T08:52:27.359Z,94.14
2022-11-20T08:55:34.419Z,93.82
2022-11-20T08:59:09.888Z,93.68
2022-11-20T09:01:45.801Z,93.26
2022-11-20T09:04:53.671Z,93.15
2022-11-20T09:08:00.326Z,93.21
2022-11-20T09:11:08.040Z,92.90
2022-11-20T09:14:15.105Z,92.69
2022-11-20T09:17:22.113Z,92.06
2022-11-20T09:20:29.233Z,91.64
2022-11-20T09:23:36.344Z,90.80
2022-11-20T09:26:43.466Z,90.45
2022-11-20T09:29:50.453Z,91.08
2022-11-20T09:32:57.143Z,91.14
2022-11-20T09:35:57.843Z,90.83
2022-11-20T09:39:04.802Z,90.51
2022-11-20T09:42:11.655Z,90.68
2022-11-20T09:45:18.544Z,90.68
2022-11-20T09:48:25.869Z,91.09
2022-11-20T09:51:33.825Z,90.11
2022-11-20T09:54:41.376Z,89.59
2022-11-20T09:57:49.556Z,88.61
2022-11-20T10:00:56.526Z,88.50
2022-11-20T10:04:04.328Z,88.57
2022-11-20T10:07:31.564Z,87.31
2022-11-20T10:10:16.187Z,86.58
2022-11-20T10:13:23.957Z,87.21
2022-11-20T10:16:32.846Z,87.52
2022-11-20T10:19:31.655Z,87.42
2022-11-20T10:22:39.008Z,87.59
2022-11-20T10:25:46.432Z,87.17
2022-11-20T10:28:58.775Z,86.65
2022-11-20T10:31:56.219Z,86.65
2022-11-20T10:35:03.089Z,85.98
2022-11-20T10:38:10.387Z,84.73
2022-11-20T10:41:17.438Z,83.64
2022-11-20T10:44:24.551Z,82.29
2022-11-20T10:47:31.518Z,80.68
2022-11-20T10:50:38.511Z,79.74
2022-11-20T10:53:45.992Z,79.22
2022-11-20T10:56:52.911Z,79.33
2022-11-20T10:59:59.923Z,79.01
2022-11-20T11:03:07.282Z,79.36
2022-11-20T11:06:14.239Z,79.33
2022-11-20T11:09:21.909Z,79.74
2022-11-20T11:12:29.114Z,80.37
2022-11-20T11:15:36.115Z,79.74
2022-11-20T11:18:43.084Z,81.06
2022-11-20T11:21:55.126Z,79.50
2022-11-20T11:24:51.753Z,79.19
2022-11-20T11:27:59.125Z,78.97
2022-11-20T11:31:06.945Z,77.62
2022-11-20T11:34:13.883Z,77.62
2022-11-20T11:37:22.726Z,78.35
2022-11-20T11:40:30.555Z,78.56
2022-11-20T11:43:38.098Z,77.10
2022-11-20T11:46:45.738Z,77.62
2022-11-20T11:49:52.477Z,77.94
2022-11-20T11:53:00.375Z,78.66
2022-11-20T11:56:08.078Z,78.45
2022-11-20T11:59:15.089Z,78.56
2022-11-20T12:02:22.347Z,78.66
2022-11-20T12:05:29.328Z,77.41
2022-11-20T12:08:36.229Z,77.34
2022-11-20T12:11:43.228Z,77.51
2022-11-20T12:14:50.148Z,77.86
2022-11-20T12:17:57.390Z,78.28
2022-11-20T12:21:04.741Z,78.59
2022-11-20T12:24:11.983Z,78.91
2022-11-20T12:27:19.351Z,79.43
2022-11-20T12:30:26.579Z,79.43
2022-11-20T12:33:34.309Z,79.91
2022-11-20T12:36:41.662Z,78.66
2022-11-20T12:39:48.732Z,79.67
2022-11-20T12:42:56.372Z,78.52
2022-11-20T12:46:03.153Z,76.96
2022-11-20T12:49:10.604Z,77.72
2022-11-20T12:52:18.024Z,78.18
2022-11-20T12:55:25.053Z,79.11
2022-11-20T12:58:32.641Z,79.64
2022-11-20T13:01:40.174Z,80.05
2022-11-20T13:04:47.041Z,80.37
2022-11-20T13:07:54.626Z,80.68
2022-11-20T13:11:01.688Z,80.27
2022-11-20T13:14:09.118Z,80.13
2022-11-20T13:17:16.606Z,80.23
2022-11-20T13:20:23.358Z,80.54
2022-11-20T13:23:31.127Z,80.71
2022-11-20T13:26:38.346Z,80.61
2022-11-20T13:29:45.248Z,80.82
2022-11-20T13:32:53.029Z,80.82
2022-11-20T13:36:00.216Z,81.45
2022-11-20T13:39:07.399Z,81.34
2022-11-20T13:42:14.628Z,81.02
2022-11-20T13:45:22.251Z,81.02
2022-11-20T13:48:29.389Z,81.55
2022-11-20T13:51:36.659Z,80.71
2022-11-20T13:54:43.933Z,81.23
2022-11-20T13:57:51.221Z,80.19
2022-11-20T14:00:58.302Z,80.54
2022-11-20T14:04:06.730Z,81.48
2022-11-20T14:07:13.785Z,81.16
2022-11-20T14:10:21.080Z,81.73
2022-11-20T14:13:28.384Z,81.10
2022-11-20T14:16:35.046Z,81.31
2022-11-20T14:19:42.361Z,81.31
2022-11-20T14:22:49.710Z,80.62
2022-11-20T14:25:56.428Z,80.93
2022-11-20T14:29:03.841Z,81.13
2022-11-20T14:32:10.945Z,81.24
2022-11-20T14:35:18.155Z,81.24
2022-11-20T14:38:26.075Z,81.56
2022-11-20T14:41:32.857Z,81.66
2022-11-20T14:44:39.964Z,81.56
2022-11-20T14:47:47.065Z,81.87
2022-11-20T14:50:54.210Z,81.45
2022-11-20T14:54:01.467Z,82.50
2022-11-20T14:57:08.504Z,82.50
2022-11-20T15:00:15.637Z,82.29
2022-11-20T15:03:25.528Z,82.70
2022-11-20T15:06:24.168Z,82.74
2022-11-20T15:09:31.219Z,82.95
2022-11-20T15:12:38.855Z,82.74
2022-11-20T15:15:45.863Z,83.26
2022-11-20T15:18:52.870Z,83.62
2022-11-20T15:21:59.853Z,84.14
2022-11-20T15:25:07.203Z,84.70
2022-11-20T15:28:14.250Z,85.12
2022-11-20T15:31:21.430Z,85.74
2022-11-20T15:34:28.851Z,86.06
2022-11-20T15:37:35.482Z,86.52
2022-11-20T15:40:42.830Z,86.93
2022-11-20T15:43:50.241Z,87.04
2022-11-20T15:46:56.811Z,87.15
2022-11-20T15:50:04.114Z,87.35
2022-11-20T15:53:11.474Z,87.66
2022-11-20T15:56:18.212Z,88.09
2022-11-20T15:59:25.651Z,88.34
2022-11-20T16:02:32.571Z,88.12
2022-11-20T16:05:39.552Z,87.81
2022-11-20T16:08:46.877Z,87.71
2022-11-20T16:11:53.875Z,88.12
2022-11-20T16:15:00.903Z,88.02
2022-11-20T16:18:07.606Z,88.02
2022-11-20T16:21:14.699Z,87.81
2022-11-20T16:24:22.044Z,87.81
2022-11-20T16:27:29.084Z,87.81
2022-11-20T16:30:36.031Z,88.17
2022-11-20T16:33:42.963Z,88.48
2022-11-20T16:36:49.953Z,88.84
2022-11-20T16:39:57.026Z,89.04
2022-11-20T16:43:04.298Z,89.36
2022-11-20T16:46:11.336Z,89.61
2022-11-20T16:49:17.957Z,89.72
2022-11-20T16:52:24.877Z,90.13
2022-11-20T16:55:32.108Z,90.38
2022-11-20T16:58:39.107Z,91.43
2022-11-20T17:01:46.313Z,92.10
2022-11-20T17:04:53.470Z,92.63
2022-11-20T17:08:00.379Z,92.88
2022-11-20T17:11:07.428Z,93.19
2022-11-20T17:14:14.658Z,93.30
2022-11-20T17:17:21.239Z,93.40
2022-11-20T17:20:28.520Z,93.34
2022-11-20T17:23:35.480Z,93.87
2022-11-20T17:26:42.522Z,94.85
2022-11-20T17:29:49.588Z,95.48
2022-11-20T17:32:56.472Z,95.59
2022-11-20T17:36:03.384Z,95.59
2022-11-20T17:39:10.562Z,96.12
2022-11-20T17:42:17.121Z,96.53
2022-11-20T17:45:24.612Z,96.64
2022-11-20T17:48:32.000Z,96.75
2022-11-20T17:51:38.552Z,96.75
2022-11-20T17:54:45.842Z,96.43
2022-11-20T17:57:53.087Z,96.43
2022-11-20T18:00:59.633Z,96.75
2022-11-20T18:04:06.847Z,97.21
2022-11-20T18:07:13.613Z,97.31
2022-11-20T18:10:21.058Z,97.11
2022-11-20T18:13:28.324Z,97.00
2022-11-20T18:16:35.114Z,97.00
2022-11-20T18:20:00.708Z,96.89
2022-11-20T18:22:47.493Z,97.21
2022-11-20T18:25:54.146Z,97.74
2022-11-20T18:29:06.169Z,97.84
2022-11-20T18:32:03.522Z,97.74
2022-11-20T18:35:11.016Z,97.53
2022-11-20T18:38:18.181Z,97.84
2022-11-20T18:41:25.362Z,97.94
2022-11-20T18:44:32.795Z,97.90
2022-11-20T18:47:39.535Z,97.90
2022-11-20T18:50:46.828Z,97.90
2022-11-20T18:53:54.488Z,97.90
2022-11-20T18:57:01.208Z,97.90
2022-11-20T19:00:09.743Z,97.90
2022-11-20T19:03:17.436Z,97.90
2022-11-20T19:06:24.095Z,97.80
2022-11-20T19:09:30.868Z,97.69
2022-11-20T19:12:38.462Z,98.00
2022-11-20T19:15:45.486Z,98.22
2022-11-20T19:18:53.229Z,98.17
2022-11-20T19:22:00.961Z,98.28
2022-11-20T19:25:07.748Z,98.28
2022-11-20T19:28:14.658Z,98.23
2022-11-20T19:31:24.426Z,98.23
2022-11-20T19:34:32.071Z,98.13
2022-11-20T19:37:39.068Z,98.02
2022-11-20T19:40:46.030Z,97.98
2022-11-20T19:43:53.280Z,97.87
2022-11-20T19:46:59.889Z,97.77
2022-11-20T19:50:06.979Z,97.52
2022-11-20T19:53:14.790Z,97.41
2022-11-20T19:56:21.421Z,97.30
2022-11-20T19:59:28.396Z,97.20
2022-11-20T20:02:35.371Z,97.20
2022-11-20T20:05:42.202Z,97.09
2022-11-20T20:08:49.541Z,96.94
2022-11-20T20:11:56.582Z,96.84
2022-11-20T20:15:03.282Z,96.73
2022-11-20T20:18:10.585Z,96.73
2022-11-20T20:21:17.262Z,96.37
2022-11-20T20:24:24.173Z,95.96
2022-11-20T20:27:31.657Z,95.64
2022-11-20T20:30:38.273Z,95.43
2022-11-20T20:33:44.844Z,95.12
2022-11-20T20:36:52.112Z,94.60
2022-11-20T20:39:58.777Z,93.97
2022-11-20T20:43:05.695Z,93.40
2022-11-20T20:46:12.596Z,93.08
2022-11-20T20:49:20.880Z,92.88
2022-11-20T20:52:28.776Z,92.67
2022-11-20T20:55:37.434Z,92.25
2022-11-20T20:58:45.055Z,92.04
2022-11-20T21:01:51.732Z,91.72
2022-11-20T21:04:58.918Z,91.83
2022-11-20T21:08:05.976Z,91.94
2022-11-20T21:11:12.678Z,91.94
2022-11-20T21:14:20.119Z,92.04
2022-11-20T21:17:27.164Z,92.25
2022-11-20T21:20:33.841Z,92.25
2022-11-20T21:23:41.018Z,92.67
2022-11-20T21:26:47.668Z,92.77
2022-11-20T21:29:54.849Z,92.77
2022-11-20T21:33:02.126Z,92.88
2022-11-20T21:36:08.769Z,93.08
2022-11-20T21:39:15.969Z,93.19
2022-11-20T21:42:23.239Z,93.30
2022-11-20T21:45:29.779Z,93.26
2022-11-20T21:48:37.129Z,93.36
2022-11-20T21:51:44.020Z,93.26
2022-11-20T21:54:50.900Z,93.15
2022-11-20T21:57:58.350Z,92.83
2022-11-20T22:01:05.360Z,92.63
2022-11-20T22:04:12.301Z,92.83
2022-11-20T22:07:19.738Z,92.52
2022-11-20T22:10:26.602Z,92.10
2022-11-20T22:13:33.541Z,92.10
2022-11-20T22:16:40.474Z,92.42
2022-11-20T22:19:47.322Z,92.21
2022-11-20T22:22:54.267Z,92.31
2022-11-20T22:26:01.182Z,92.52
2022-11-20T22:29:08.353Z,92.83
2022-11-20T22:32:15.301Z,93.26
2022-11-20T22:35:22.334Z,93.57
2022-11-20T22:38:29.857Z,93.57
2022-11-20T22:41:36.359Z,93.57
2022-11-20T22:44:43.649Z,93.88
2022-11-20T22:47:50.562Z,93.99
2022-11-20T22:50:57.097Z,94.20
2022-11-20T22:54:04.225Z,94.30
2022-11-20T22:57:11.186Z,94.30
2022-11-20T23:00:18.206Z,94.20
2022-11-20T23:03:25.504Z,94.40
2022-11-20T23:06:32.376Z,94.40
2022-11-20T23:09:39.327Z,94.62
2022-11-20T23:12:46.538Z,94.62
2022-11-20T23:15:53.137Z,94.82
2022-11-20T23:19:00.293Z,94.82
2022-11-20T23:22:07.608Z,94.93
2022-11-20T23:25:14.199Z,95.03
2022-11-20T23:28:21.319Z,95.14
2022-11-20T23:31:28.342Z,95.25
2022-11-20T23:34:35.359Z,95.25
2022-11-20T23:37:42.759Z,95.14
2022-11-20T23:40:49.649Z,95.25
2022-11-20T23:43:56.661Z,95.35
2022-11-20T23:47:04.095Z,95.41
2022-11-20T23:50:10.920Z,95.45
2022-11-20T23:53:17.898Z,95.51
2022-11-20T23:56:24.971Z,95.72
2022-11-20T23:59:31.932Z,95.87
